FFT1413 KEWR-KMDW
Flight info
| Callsign | FFT1413 |
|---|---|
| Flight time | N/A |
| Altitude | 38000 |
| Route | NEWEL J60 DJB ASHEN PANGG7 |
| Aircraft | A320/M-SDE3FGHIRWY/LB1 |
Departure
| Time | 2026-04-26 17:57 |
|---|---|
| Airport | Newark Liberty International Airport (KEWR) |
Arrival
| Time | N/A |
|---|---|
| Airport | Chicago Midway International Airport (KMDW) |
| Time | Latitude | Longitude | Altitude | Speed | Heading |
|---|---|---|---|---|---|
| 2026-04-26 17:30 | 40.68793 | -74.17780 | 22 ft | 0 kts | 114° |
| 2026-04-26 17:46 | 40.68799 | -74.17800 | 22 ft | 4 kts | 102° |
| 2026-04-26 17:46 | 40.68799 | -74.17832 | 22 ft | 4 kts | 48° |
| 2026-04-26 17:47 | 40.68779 | -74.17844 | 24 ft | 4 kts | 7° |
| 2026-04-26 17:47 | 40.68761 | -74.17847 | 24 ft | 4 kts | 7° |
| 2026-04-26 17:47 | 40.68725 | -74.17852 | 24 ft | 4 kts | 6° |
| 2026-04-26 17:47 | 40.68699 | -74.17856 | 24 ft | 4 kts | 5° |
| 2026-04-26 17:48 | 40.68673 | -74.17858 | 22 ft | 2 kts | 4° |
| 2026-04-26 17:48 | 40.68672 | -74.17859 | 22 ft | 0 kts | 4° |
| 2026-04-26 17:50 | 40.68676 | -74.17854 | 22 ft | 3 kts | 31° |
| 2026-04-26 17:50 | 40.68672 | -74.17806 | 22 ft | 8 kts | 105° |
| 2026-04-26 17:50 | 40.68654 | -74.17728 | 22 ft | 10 kts | 107° |
| 2026-04-26 17:50 | 40.68625 | -74.17634 | 24 ft | 12 kts | 117° |
| 2026-04-26 17:51 | 40.68587 | -74.17532 | 23 ft | 13 kts | 115° |
| 2026-04-26 17:51 | 40.68525 | -74.17477 | 23 ft | 12 kts | 195° |
| 2026-04-26 17:51 | 40.68454 | -74.17524 | 23 ft | 11 kts | 206° |
| 2026-04-26 17:51 | 40.68387 | -74.17566 | 23 ft | 10 kts | 205° |
| 2026-04-26 17:52 | 40.68323 | -74.17607 | 24 ft | 11 kts | 205° |
| 2026-04-26 17:52 | 40.68230 | -74.17667 | 22 ft | 16 kts | 206° |
| 2026-04-26 17:52 | 40.68136 | -74.17726 | 22 ft | 14 kts | 205° |
| 2026-04-26 17:52 | 40.68049 | -74.17781 | 22 ft | 13 kts | 206° |
| 2026-04-26 17:53 | 40.67968 | -74.17833 | 22 ft | 12 kts | 206° |
| 2026-04-26 17:53 | 40.67895 | -74.17879 | 22 ft | 11 kts | 206° |
| 2026-04-26 17:53 | 40.67829 | -74.17922 | 22 ft | 10 kts | 206° |
| 2026-04-26 17:54 | 40.67708 | -74.17999 | 22 ft | 9 kts | 206° |
| 2026-04-26 17:54 | 40.67654 | -74.18033 | 22 ft | 8 kts | 206° |
| 2026-04-26 17:54 | 40.67602 | -74.18043 | 22 ft | 7 kts | 167° |
| 2026-04-26 17:54 | 40.67573 | -74.18001 | 22 ft | 6 kts | 116° |
| 2026-04-26 17:55 | 40.67559 | -74.17950 | 23 ft | 7 kts | 92° |
| 2026-04-26 17:55 | 40.67584 | -74.17917 | 23 ft | 0 kts | 26° |
| 2026-04-26 17:55 | 40.67589 | -74.17913 | 23 ft | 6 kts | 26° |
| 2026-04-26 17:56 | 40.67861 | -74.17739 | 21 ft | 82 kts | 26° |
| 2026-04-26 17:56 | 40.69563 | -74.16667 | 385 ft | 160 kts | 28° |
| 2026-04-26 17:57 | 40.71255 | -74.14783 | 2020 ft | 163 kts | 46° |
| 2026-04-26 17:57 | 40.72083 | -74.13710 | 2583 ft | 177 kts | 44° |
| 2026-04-26 17:57 | 40.73048 | -74.12506 | 2982 ft | 202 kts | 43° |
| 2026-04-26 17:57 | 40.74135 | -74.11161 | 3507 ft | 226 kts | 44° |
| 2026-04-26 17:58 | 40.78760 | -74.10888 | 6022 ft | 269 kts | 322° |
| 2026-04-26 17:59 | 40.81461 | -74.14373 | 8022 ft | 274 kts | 317° |
| 2026-04-26 17:59 | 40.82785 | -74.16198 | 8986 ft | 278 kts | 310° |
| 2026-04-26 17:59 | 40.83760 | -74.18436 | 9938 ft | 283 kts | 298° |
| 2026-04-26 17:59 | 40.84547 | -74.20901 | 10457 ft | 305 kts | 287° |
| 2026-04-26 18:00 | 40.84648 | -74.23797 | 10956 ft | 326 kts | 267° |
| 2026-04-26 18:00 | 40.84407 | -74.26811 | 11764 ft | 331 kts | 267° |
| 2026-04-26 18:00 | 40.84154 | -74.29850 | 12646 ft | 334 kts | 267° |
| 2026-04-26 18:00 | 40.83895 | -74.32904 | 13541 ft | 336 kts | 267° |
| 2026-04-26 18:01 | 40.83635 | -74.35978 | 14345 ft | 337 kts | 268° |
| 2026-04-26 18:01 | 40.83379 | -74.39069 | 15077 ft | 340 kts | 268° |
| 2026-04-26 18:01 | 40.83122 | -74.42188 | 15790 ft | 343 kts | 268° |
| 2026-04-26 18:01 | 40.82867 | -74.45299 | 16486 ft | 347 kts | 269° |
| 2026-04-26 18:02 | 40.82608 | -74.48478 | 17204 ft | 350 kts | 269° |
| 2026-04-26 18:02 | 40.82520 | -74.49559 | 17444 ft | 351 kts | 269° |
| 2026-04-26 18:02 | 40.82074 | -74.54931 | 18575 ft | 357 kts | 269° |
| 2026-04-26 18:02 | 40.81799 | -74.58209 | 19185 ft | 361 kts | 269° |
| 2026-04-26 18:03 | 40.81518 | -74.61509 | 19802 ft | 363 kts | 269° |
| 2026-04-26 18:03 | 40.81234 | -74.64827 | 20427 ft | 365 kts | 269° |
| 2026-04-26 18:03 | 40.80948 | -74.68173 | 21034 ft | 368 kts | 269° |
| 2026-04-26 18:03 | 40.80661 | -74.71546 | 21644 ft | 370 kts | 269° |
| 2026-04-26 18:04 | 40.80372 | -74.74930 | 22236 ft | 373 kts | 269° |
| 2026-04-26 18:04 | 40.80082 | -74.78339 | 22794 ft | 375 kts | 269° |
| 2026-04-26 18:04 | 40.79790 | -74.81774 | 23363 ft | 378 kts | 269° |
| 2026-04-26 18:05 | 40.79190 | -74.88714 | 24403 ft | 382 kts | 269° |
| 2026-04-26 18:05 | 40.78882 | -74.92207 | 24876 ft | 384 kts | 268° |
| 2026-04-26 18:05 | 40.78574 | -74.95722 | 25358 ft | 386 kts | 268° |
| 2026-04-26 18:05 | 40.78267 | -74.99257 | 25812 ft | 389 kts | 268° |
| 2026-04-26 18:06 | 40.77958 | -75.02810 | 26264 ft | 391 kts | 268° |
| 2026-04-26 18:06 | 40.77644 | -75.06383 | 26717 ft | 393 kts | 268° |
| 2026-04-26 18:06 | 40.77325 | -75.09980 | 27162 ft | 396 kts | 268° |
| 2026-04-26 18:06 | 40.77010 | -75.13544 | 27597 ft | 398 kts | 268° |
| 2026-04-26 18:07 | 40.76680 | -75.17228 | 28034 ft | 400 kts | 268° |
| 2026-04-26 18:07 | 40.76463 | -75.19645 | 28315 ft | 402 kts | 268° |
| 2026-04-26 18:07 | 40.76023 | -75.24506 | 28874 ft | 404 kts | 267° |
| 2026-04-26 18:07 | 40.75911 | -75.25753 | 29014 ft | 405 kts | 267° |
| 2026-04-26 18:08 | 40.75350 | -75.31960 | 29704 ft | 409 kts | 267° |
| 2026-04-26 18:08 | 40.75125 | -75.34434 | 29964 ft | 411 kts | 267° |
| 2026-04-26 18:08 | 40.74786 | -75.38184 | 30348 ft | 413 kts | 267° |
| 2026-04-26 18:08 | 40.74444 | -75.41949 | 30671 ft | 415 kts | 267° |
| 2026-04-26 18:09 | 40.74099 | -75.45739 | 30979 ft | 417 kts | 267° |
| 2026-04-26 18:09 | 40.73753 | -75.49547 | 31285 ft | 420 kts | 266° |
| 2026-04-26 18:09 | 40.73401 | -75.53379 | 31575 ft | 422 kts | 266° |
| 2026-04-26 18:09 | 40.73045 | -75.57222 | 31929 ft | 422 kts | 266° |
| 2026-04-26 18:10 | 40.72688 | -75.61058 | 32355 ft | 421 kts | 266° |
| 2026-04-26 18:10 | 40.72330 | -75.64895 | 32784 ft | 421 kts | 266° |
| 2026-04-26 18:10 | 40.71970 | -75.68721 | 33205 ft | 420 kts | 266° |
| 2026-04-26 18:10 | 40.71609 | -75.72539 | 33613 ft | 419 kts | 266° |
| 2026-04-26 18:11 | 40.71255 | -75.76300 | 34026 ft | 419 kts | 266° |
| 2026-04-26 18:11 | 40.70897 | -75.80098 | 34405 ft | 418 kts | 266° |
| 2026-04-26 18:11 | 40.70536 | -75.83905 | 34758 ft | 417 kts | 265° |
| 2026-04-26 18:11 | 40.70175 | -75.87694 | 35140 ft | 416 kts | 265° |
| 2026-04-26 18:12 | 40.69811 | -75.91471 | 35501 ft | 414 kts | 265° |
| 2026-04-26 18:12 | 40.69449 | -75.95225 | 35847 ft | 413 kts | 265° |
| 2026-04-26 18:12 | 40.69088 | -75.98968 | 36188 ft | 411 kts | 265° |
| 2026-04-26 18:12 | 40.68727 | -76.02699 | 36517 ft | 410 kts | 265° |
| 2026-04-26 18:13 | 40.68367 | -76.06423 | 36837 ft | 409 kts | 264° |
| 2026-04-26 18:13 | 40.68006 | -76.10133 | 37153 ft | 408 kts | 264° |
| 2026-04-26 18:13 | 40.67643 | -76.13834 | 37462 ft | 407 kts | 264° |
| 2026-04-26 18:13 | 40.67404 | -76.16280 | 37658 ft | 406 kts | 264° |
| 2026-04-26 18:14 | 40.66935 | -76.21208 | 38043 ft | 405 kts | 266° |
| 2026-04-26 18:14 | 40.66892 | -76.24904 | 38165 ft | 403 kts | 275° |
| 2026-04-26 18:14 | 40.67309 | -76.28543 | 38185 ft | 402 kts | 281° |
| 2026-04-26 18:15 | 40.68400 | -76.35756 | 38185 ft | 401 kts | 281° |
| 2026-04-26 18:15 | 40.69483 | -76.42972 | 38182 ft | 402 kts | 281° |
| 2026-04-26 18:16 | 40.70553 | -76.50157 | 38183 ft | 402 kts | 281° |
| 2026-04-26 18:16 | 40.72164 | -76.61009 | 38180 ft | 402 kts | 281° |
| 2026-04-26 18:17 | 40.73229 | -76.68246 | 38191 ft | 402 kts | 281° |
| 2026-04-26 18:17 | 40.74288 | -76.75497 | 38200 ft | 403 kts | 281° |
| 2026-04-26 18:18 | 40.75340 | -76.82760 | 38198 ft | 403 kts | 281° |
| 2026-04-26 18:18 | 40.76388 | -76.90033 | 38199 ft | 404 kts | 281° |
| 2026-04-26 18:19 | 40.77444 | -76.97308 | 38197 ft | 404 kts | 281° |
| 2026-04-26 18:19 | 40.78491 | -77.04599 | 38196 ft | 404 kts | 281° |
| 2026-04-26 18:20 | 40.79533 | -77.11897 | 38194 ft | 405 kts | 281° |
| 2026-04-26 18:20 | 40.80395 | -77.17971 | 38196 ft | 405 kts | 281° |
| 2026-04-26 18:21 | 40.81591 | -77.26471 | 38189 ft | 405 kts | 281° |
| 2026-04-26 18:21 | 40.82623 | -77.33795 | 38189 ft | 406 kts | 281° |
| 2026-04-26 18:22 | 40.83651 | -77.41130 | 38187 ft | 406 kts | 281° |
| 2026-04-26 18:22 | 40.84688 | -77.48477 | 38185 ft | 407 kts | 281° |
| 2026-04-26 18:23 | 40.85710 | -77.55841 | 38188 ft | 407 kts | 281° |
| 2026-04-26 18:23 | 40.86720 | -77.63218 | 38195 ft | 408 kts | 281° |
| 2026-04-26 18:24 | 40.87732 | -77.70605 | 38193 ft | 408 kts | 281° |
| 2026-04-26 18:24 | 40.88737 | -77.77947 | 38193 ft | 409 kts | 281° |
| 2026-04-26 18:25 | 40.89745 | -77.85349 | 38195 ft | 409 kts | 281° |
| 2026-04-26 18:25 | 40.90751 | -77.92759 | 38193 ft | 410 kts | 281° |
| 2026-04-26 18:26 | 40.91750 | -78.00179 | 38195 ft | 410 kts | 281° |
| 2026-04-26 18:26 | 40.92701 | -78.07618 | 38201 ft | 411 kts | 280° |
| 2026-04-26 18:27 | 40.93602 | -78.15076 | 38211 ft | 411 kts | 280° |
| 2026-04-26 18:27 | 40.94502 | -78.22533 | 38212 ft | 411 kts | 280° |
| 2026-04-26 18:28 | 40.95419 | -78.30012 | 38214 ft | 411 kts | 280° |
| 2026-04-26 18:28 | 40.96332 | -78.37498 | 38218 ft | 412 kts | 280° |
| 2026-04-26 18:29 | 40.97233 | -78.44934 | 38219 ft | 412 kts | 280° |
| 2026-04-26 18:29 | 40.98136 | -78.52425 | 38220 ft | 412 kts | 280° |
| 2026-04-26 18:30 | 40.99033 | -78.59931 | 38216 ft | 413 kts | 280° |
| 2026-04-26 18:30 | 40.99926 | -78.67440 | 38217 ft | 413 kts | 280° |
| 2026-04-26 18:31 | 41.00814 | -78.74957 | 38199 ft | 413 kts | 280° |
| 2026-04-26 18:31 | 41.01695 | -78.82425 | 38194 ft | 413 kts | 280° |
| 2026-04-26 18:32 | 41.02575 | -78.89947 | 38193 ft | 413 kts | 280° |
| 2026-04-26 18:32 | 41.03450 | -78.97479 | 38194 ft | 414 kts | 280° |
| 2026-04-26 18:33 | 41.04324 | -79.05033 | 38198 ft | 414 kts | 280° |
| 2026-04-26 18:33 | 41.05197 | -79.12572 | 38198 ft | 414 kts | 280° |
| 2026-04-26 18:34 | 41.06058 | -79.20113 | 38200 ft | 414 kts | 280° |
| 2026-04-26 18:34 | 41.06908 | -79.27661 | 38206 ft | 414 kts | 280° |
| 2026-04-26 18:35 | 41.07757 | -79.35204 | 38205 ft | 414 kts | 280° |
| 2026-04-26 18:35 | 41.08600 | -79.42703 | 38209 ft | 414 kts | 280° |